Time;durP1;ratioP1;P1;durP2;ratioP2;P2;SDS_P1;SDS_P2;PMS_P1;PMS_P2;Temp;Humidity;BMP_temperature;BMP_pressure;BME280_temperature;BME280_humidity;BME280_pressure;Samples;Min_cycle;Max_cycle;Signal;HPM_P1;HPM_P2
2021/06/16 00:02:22;;;;;;;;;23.00;22.25;;;;;28.28;40.91;101190.31;5056984;28;45595;-77
2021/06/16 00:04:47;;;;;;;;;24.00;22.25;;;;;28.21;41.19;101191.38;5058791;28;45438;-77
2021/06/16 00:07:13;;;;;;;;;21.75;20.25;;;;;28.21;41.60;101194.03;5057555;28;45290;-78
2021/06/16 00:09:40;;;;;;;;;23.50;21.50;;;;;28.17;41.11;101185.25;5038404;28;45336;-78
2021/06/16 00:12:07;;;;;;;;;23.00;22.75;;;;;28.20;40.96;101187.84;5056193;28;45570;-77
2021/06/16 00:14:33;;;;;;;;;23.50;22.50;;;;;28.19;41.24;101185.22;5055805;28;47238;-77
2021/06/16 00:16:58;;;;;;;;;23.25;22.75;;;;;28.13;41.84;101185.38;5055987;28;45431;-78
2021/06/16 00:19:24;;;;;;;;;23.00;22.75;;;;;28.13;41.71;101190.69;5057559;28;45309;-77
2021/06/16 00:21:49;;;;;;;;;28.00;25.25;;;;;28.05;41.64;101173.06;5058596;28;45346;-78
2021/06/16 00:24:19;;;;;;;;;24.25;21.75;;;;;28.09;41.64;101172.13;5064147;28;45308;-77
2021/06/16 00:26:44;;;;;;;;;25.50;25.00;;;;;28.09;41.67;101177.44;5066725;28;45269;-77
2021/06/16 00:29:10;;;;;;;;;21.25;21.25;;;;;28.03;41.55;101177.53;5061276;28;45411;-78
2021/06/16 00:31:35;;;;;;;;;24.50;23.50;;;;;28.08;42.05;101178.34;5062851;28;45480;-77
2021/06/16 00:34:01;;;;;;;;;25.00;25.00;;;;;28.08;42.06;101180.13;5066149;28;46267;-78
2021/06/16 00:36:27;;;;;;;;;23.50;23.50;;;;;28.08;42.09;101177.47;5065453;28;45192;-78
2021/06/16 00:38:53;;;;;;;;;26.00;25.25;;;;;28.06;41.82;101177.47;5063490;28;45312;-78
2021/06/16 00:41:19;;;;;;;;;23.75;23.00;;;;;28.05;41.96;101175.72;5043980;28;45662;-79
2021/06/16 00:43:44;;;;;;;;;27.50;25.75;;;;;28.04;41.89;101163.31;5059366;28;45319;-79
2021/06/16 00:46:10;;;;;;;;;27.25;27.25;;;;;28.02;41.83;101169.59;5059492;28;45469;-78
2021/06/16 00:48:36;;;;;;;;;27.75;26.75;;;;;27.99;41.69;101173.19;5059066;28;45424;-78
2021/06/16 00:51:02;;;;;;;;;28.25;27.75;;;;;27.91;42.39;101168.03;5058804;28;45449;-78
2021/06/16 00:53:27;;;;;;;;;28.75;26.25;;;;;27.91;42.10;101162.72;5040646;28;47439;-78
2021/06/16 00:55:53;;;;;;;;;25.50;25.25;;;;;27.90;42.23;101162.75;5058410;28;45364;-78
2021/06/16 00:58:19;;;;;;;;;27.25;25.50;;;;;27.90;42.13;101152.97;5058751;28;45397;-78
2021/06/16 01:00:52;;;;;;;;;26.25;25.25;;;;;27.86;42.12;101161.06;5059529;28;45516;-78
2021/06/16 01:03:35;;;;;;;;;24.25;24.25;;;;;27.73;42.58;101148.03;5058566;28;45478;-78
2021/06/16 01:06:29;;;;;;;;;24.25;21.75;;;;;27.69;43.41;101148.13;5059869;28;45273;-78
2021/06/16 01:09:14;;;;;;;;;23.25;23.25;;;;;27.62;43.53;101150.94;5051916;28;45814;-78
2021/06/16 01:12:18;;;;;;;;;21.75;21.50;;;;;27.59;43.57;101144.81;5042058;28;45557;-79
2021/06/16 01:15:10;;;;;;;;;26.00;23.75;;;;;27.58;43.86;101145.72;5058849;28;46224;-79
2021/06/16 01:17:58;;;;;;;;;23.25;22.25;;;;;27.58;44.14;101141.25;5058414;28;45820;-79
2021/06/16 01:20:57;;;;;;;;;21.00;19.25;;;;;27.56;43.77;101135.09;5058394;28;45498;-79
2021/06/16 01:23:51;;;;;;;;;20.75;20.25;;;;;27.50;44.28;101136.09;5053366;28;45299;-79
2021/06/16 01:26:26;;;;;;;;;25.00;23.50;;;;;27.44;44.73;101127.34;5058257;28;45479;-78
2021/06/16 01:28:57;;;;;;;;;17.25;16.75;;;;;27.39;44.42;101129.22;5058184;28;45508;-79
2021/06/16 01:31:25;;;;;;;;;29.00;25.00;;;;;27.34;44.24;101124.00;5058281;28;45315;-78
2021/06/16 01:33:51;;;;;;;;;21.25;21.25;;;;;27.30;45.07;101131.16;5062856;28;45174;-78
2021/06/16 01:36:19;;;;;;;;;22.50;21.50;;;;;27.27;45.16;101128.56;5063029;28;46048;-78
2021/06/16 01:38:45;;;;;;;;;25.50;22.75;;;;;27.26;44.93;101125.94;5059206;28;45362;-78
2021/06/16 01:41:15;;;;;;;;;23.75;22.00;;;;;27.23;44.97;101124.19;5058019;28;45403;-78
2021/06/16 01:43:42;;;;;;;;;19.75;19.50;;;;;27.20;45.36;101121.63;5039425;28;45360;-78
2021/06/16 01:46:09;;;;;;;;;19.50;18.50;;;;;27.15;45.15;101119.06;5057455;28;45410;-79
2021/06/16 01:48:39;;;;;;;;;19.50;19.50;;;;;27.15;45.48;101118.16;5057827;28;45359;-79
2021/06/16 01:51:08;;;;;;;;;23.75;22.00;;;;;27.13;45.64;101120.88;5057213;28;45384;-78
2021/06/16 01:53:36;;;;;;;;;21.75;21.00;;;;;27.08;45.47;101113.88;5058095;28;45443;-78
2021/06/16 01:56:02;;;;;;;;;22.75;19.75;;;;;27.08;45.81;101119.19;5057293;28;45747;-79
2021/06/16 01:58:28;;;;;;;;;19.75;19.75;;;;;27.05;45.80;101117.44;5057580;28;45817;-78
2021/06/16 02:00:56;;;;;;;;;21.50;18.75;;;;;26.96;46.38;101101.69;5061248;28;45340;-77
2021/06/16 02:03:22;;;;;;;;;24.75;22.25;;;;;26.88;45.75;101105.38;5073121;28;45288;-77
2021/06/16 02:05:47;;;;;;;;;21.00;19.00;;;;;26.88;46.48;101107.16;5071623;28;45333;-78
2021/06/16 02:08:21;;;;;;;;;20.75;19.75;;;;;26.85;46.42;101101.91;5058711;28;45549;-78
2021/06/16 02:10:50;;;;;;;;;18.25;18.25;;;;;26.81;46.29;101100.19;5057648;28;45397;-78
2021/06/16 02:13:23;;;;;;;;;22.25;20.25;;;;;26.79;46.29;101089.59;5058229;28;45258;-78
2021/06/16 02:15:59;;;;;;;;;26.50;22.75;;;;;26.74;46.38;101099.41;5057338;28;46313;-78
2021/06/16 02:18:37;;;;;;;;;20.50;18.00;;;;;26.67;46.28;101093.31;5057217;28;45419;-78
2021/06/16 02:21:03;;;;;;;;;22.50;21.00;;;;;26.53;46.98;101092.69;5056925;28;45253;-79
2021/06/16 02:23:29;;;;;;;;;20.00;19.50;;;;;26.47;47.50;101095.44;5057413;28;45503;-78
2021/06/16 02:25:55;;;;;;;;;17.75;17.00;;;;;26.39;47.17;101091.16;5057223;28;45219;-79
2021/06/16 02:28:21;;;;;;;;;19.50;19.50;;;;;26.42;47.92;101095.53;5057388;28;46188;-79
2021/06/16 02:30:47;;;;;;;;;21.25;19.50;;;;;26.36;48.23;101091.19;5057139;28;45382;-78
2021/06/16 02:33:13;;;;;;;;;19.50;18.50;;;;;26.36;48.12;101092.97;5060716;28;45462;-79
2021/06/16 02:35:38;;;;;;;;;18.00;18.00;;;;;26.37;48.05;101089.44;5063534;28;45359;-79
2021/06/16 02:38:10;;;;;;;;;19.25;18.25;;;;;26.34;47.58;101076.19;5059296;28;45378;-78
2021/06/16 02:40:40;;;;;;;;;21.25;20.50;;;;;26.32;47.32;101081.53;5057704;28;45415;-78
2021/06/16 02:43:07;;;;;;;;;20.25;18.75;;;;;26.30;48.18;101074.50;5057072;28;45481;-78
2021/06/16 02:45:34;;;;;;;;;20.25;20.00;;;;;26.27;48.13;101071.00;5038910;28;47846;-79
2021/06/16 02:48:01;;;;;;;;;22.00;21.00;;;;;26.28;47.81;101063.91;5056777;28;45358;-79
2021/06/16 02:50:29;;;;;;;;;20.25;19.50;;;;;26.23;47.94;101056.03;5057065;28;45388;-78
2021/06/16 02:53:00;;;;;;;;;22.50;20.75;;;;;26.23;47.82;101069.28;5056941;28;45458;-78
2021/06/16 02:55:27;;;;;;;;;23.00;18.50;;;;;26.17;48.69;101065.84;5058883;28;45252;-78
2021/06/16 02:57:54;;;;;;;;;19.25;19.25;;;;;26.12;48.17;101060.63;5069558;28;45853;-78
2021/06/16 03:00:21;;;;;;;;;20.00;18.50;;;;;26.09;48.71;101060.63;5055156;28;45458;-77
2021/06/16 03:02:50;;;;;;;;;22.75;22.50;;;;;26.11;48.81;101058.88;5059560;28;45331;-78
2021/06/16 03:05:21;;;;;;;;;19.75;19.75;;;;;26.11;48.98;101065.06;5061715;28;46559;-78
2021/06/16 03:07:49;;;;;;;;;20.50;19.50;;;;;26.06;49.26;101058.91;5058509;28;45582;-78
2021/06/16 03:10:17;;;;;;;;;21.00;19.75;;;;;26.07;49.40;101065.97;5057084;28;45399;-78
2021/06/16 03:12:44;;;;;;;;;20.50;20.00;;;;;26.05;48.53;101064.25;5039064;28;45511;-78
2021/06/16 03:15:10;;;;;;;;;21.00;19.75;;;;;26.01;48.75;101063.44;5038430;28;46336;-77
2021/06/16 03:17:36;;;;;;;;;22.00;20.25;;;;;26.01;48.79;101062.53;5067138;28;46068;-78
2021/06/16 03:20:05;;;;;;;;;18.25;17.75;;;;;25.97;48.97;101056.41;5076711;28;45342;-78
2021/06/16 03:22:32;;;;;;;;;20.25;20.00;;;;;26.01;49.07;101065.19;5077206;28;45518;-78
2021/06/16 03:24:58;;;;;;;;;20.00;19.00;;;;;26.01;49.53;101057.22;5067325;28;46011;-78
2021/06/16 03:27:25;;;;;;;;;20.25;18.75;;;;;26.03;48.77;101058.09;5053532;28;45508;-77
2021/06/16 03:29:52;;;;;;;;;23.25;21.75;;;;;25.99;49.23;101065.22;5057260;28;45289;-78
2021/06/16 03:32:21;;;;;;;;;19.25;18.25;;;;;25.89;49.07;101055.66;5056478;28;45240;-78
2021/06/16 03:34:47;;;;;;;;;27.25;23.25;;;;;25.87;49.16;101062.75;5061371;28;45573;-78
2021/06/16 03:37:13;;;;;;;;;20.25;20.25;;;;;25.80;49.87;101057.56;5059696;28;45481;-77
2021/06/16 03:39:39;;;;;;;;;18.75;18.75;;;;;25.80;49.90;101061.97;5038341;28;45488;-78
2021/06/16 03:42:06;;;;;;;;;24.75;21.00;;;;;25.80;49.97;101057.56;5038253;28;45553;-78
2021/06/16 03:44:34;;;;;;;;;23.00;23.00;;;;;25.76;49.62;101057.59;5056013;28;45418;-78
2021/06/16 03:47:03;;;;;;;;;25.00;22.50;;;;;25.75;49.82;101059.38;5054554;28;45923;-77
2021/06/16 03:49:29;;;;;;;;;18.25;16.50;;;;;25.73;49.92;101058.53;5064809;28;45432;-77
2021/06/16 03:51:57;;;;;;;;;24.75;22.00;;;;;25.72;50.19;101055.91;5072298;28;45627;-78
2021/06/16 03:54:25;;;;;;;;;20.00;20.00;;;;;25.65;50.47;101060.41;5071745;28;45316;-77
2021/06/16 03:56:51;;;;;;;;;24.50;22.00;;;;;25.72;50.01;101058.56;5056382;28;45755;-77
2021/06/16 03:59:20;;;;;;;;;24.00;19.50;;;;;25.68;50.23;101057.72;5056381;28;45474;-77
2021/06/16 04:01:46;;;;;;;;;20.25;19.75;;;;;25.67;50.71;101055.09;5055703;28;45319;-77
2021/06/16 04:04:13;;;;;;;;;24.50;20.00;;;;;25.60;50.09;101052.53;5056324;28;46463;-77
2021/06/16 04:06:43;;;;;;;;;21.75;18.75;;;;;25.63;50.16;101049.84;5060276;28;45415;-77
2021/06/16 04:09:11;;;;;;;;;23.75;20.50;;;;;25.63;50.63;101046.28;5058471;28;45432;-78
2021/06/16 04:11:38;;;;;;;;;23.50;20.75;;;;;25.64;50.54;101043.66;5059707;28;45605;-77
2021/06/16 04:14:04;;;;;;;;;24.50;21.75;;;;;25.63;50.47;101038.34;5058129;28;46333;-78
2021/06/16 04:16:30;;;;;;;;;23.00;21.25;;;;;25.66;50.39;101048.91;5059156;28;45176;-78
2021/06/16 04:18:56;;;;;;;;;21.75;20.75;;;;;25.72;50.86;101055.91;5058913;28;45541;-77
2021/06/16 04:21:22;;;;;;;;;24.25;23.75;;;;;25.78;50.59;101058.47;5059868;28;45421;-78
2021/06/16 04:23:49;;;;;;;;;21.75;20.50;;;;;25.77;50.15;101059.34;5058526;28;46665;-77
2021/06/16 04:26:18;;;;;;;;;24.00;21.75;;;;;25.78;50.42;101056.69;5059513;28;45935;-77
2021/06/16 04:28:45;;;;;;;;;21.00;20.00;;;;;25.75;50.57;101061.19;5059405;28;45546;-78
2021/06/16 04:31:12;;;;;;;;;24.75;23.50;;;;;25.74;50.21;101054.97;5059117;28;45513;-78
2021/06/16 04:33:38;;;;;;;;;22.50;19.75;;;;;25.68;50.23;101048.88;5061120;28;45875;-78
2021/06/16 04:36:05;;;;;;;;;24.00;22.75;;;;;25.68;50.30;101040.94;5063312;28;45373;-78
2021/06/16 04:38:31;;;;;;;;;24.25;21.00;;;;;25.72;50.05;101029.38;5059523;28;45416;-77
2021/06/16 04:40:57;;;;;;;;;23.50;22.00;;;;;25.75;50.43;101034.66;5059089;28;45243;-77
2021/06/16 04:43:22;;;;;;;;;24.25;24.25;;;;;25.79;49.75;101036.34;5058421;28;45975;-78
2021/06/16 04:45:48;;;;;;;;;24.25;22.75;;;;;25.88;49.56;101027.38;5058393;28;45182;-78
2021/06/16 04:48:14;;;;;;;;;23.50;22.75;;;;;25.94;49.29;101029.91;5057877;28;45431;-79
2021/06/16 04:50:40;;;;;;;;;27.25;25.75;;;;;25.99;48.53;101036.03;5055887;28;45277;-77
2021/06/16 04:53:05;;;;;;;;;21.00;21.00;;;;;26.04;49.05;101028.00;5039789;28;46886;-77
2021/06/16 04:55:32;;;;;;;;;22.75;22.25;;;;;26.05;48.15;101025.31;5058255;28;45264;-78
2021/06/16 04:57:57;;;;;;;;;25.00;23.25;;;;;26.01;48.85;101023.63;5058573;28;45362;-77
2021/06/16 05:00:24;;;;;;;;;25.50;22.75;;;;;26.05;48.20;101016.50;5060454;28;45568;-77
2021/06/16 05:02:57;;;;;;;;;27.25;26.75;;;;;26.04;47.77;101007.66;5041106;28;48227;-77
2021/06/16 05:05:24;;;;;;;;;27.00;23.50;;;;;26.01;48.02;101004.16;5063237;28;46045;-77
2021/06/16 05:07:49;;;;;;;;;26.25;24.50;;;;;26.03;48.29;101005.88;5045699;28;45467;-77
2021/06/16 05:10:16;;;;;;;;;27.00;24.50;;;;;26.04;47.68;101010.28;5059689;28;45509;-76
2021/06/16 05:12:43;;;;;;;;;26.50;23.25;;;;;26.04;48.10;101006.78;5059107;28;45393;-78
2021/06/16 05:15:14;;;;;;;;;35.25;32.25;;;;;26.02;48.31;101005.94;5025544;28;45430;-77
2021/06/16 05:17:40;;;;;;;;;27.75;27.50;;;;;25.98;47.77;100999.81;5048111;28;45342;-77
2021/06/16 05:20:13;;;;;;;;;25.25;23.00;;;;;25.95;47.98;101000.72;5049617;28;45337;-82
2021/06/16 05:22:39;;;;;;;;;28.25;23.50;;;;;26.03;48.42;101007.69;5052079;28;47045;-75
2021/06/16 05:25:09;;;;;;;;;26.00;25.00;;;;;26.05;48.62;101008.53;5059745;28;45308;-79
2021/06/16 05:27:35;;;;;;;;;28.25;25.00;;;;;26.09;48.07;101008.50;5060846;28;45225;-77
2021/06/16 05:30:02;;;;;;;;;28.50;26.50;;;;;26.13;48.01;101000.50;5057912;28;45542;-77
2021/06/16 05:32:28;;;;;;;;;28.25;24.50;;;;;26.13;48.00;101006.66;5057121;28;45498;-74
2021/06/16 05:34:54;;;;;;;;;29.50;26.00;;;;;26.16;48.21;101000.41;5060134;28;45289;-78
2021/06/16 05:37:20;;;;;;;;;25.75;24.00;;;;;26.16;47.77;101005.72;5061319;28;45435;-78
2021/06/16 05:39:46;;;;;;;;;25.25;23.50;;;;;26.20;47.72;101005.63;5059726;28;45609;-79
2021/06/16 05:42:12;;;;;;;;;31.50;26.75;;;;;26.19;47.79;100998.56;5056627;28;45444;-78
2021/06/16 05:44:37;;;;;;;;;30.00;27.75;;;;;26.21;47.92;101001.22;5057856;28;45786;-76
2021/06/16 05:47:04;;;;;;;;;30.25;30.00;;;;;26.24;48.01;100998.53;5057867;28;45325;-78
2021/06/16 05:49:30;;;;;;;;;31.50;29.00;;;;;26.25;47.60;101003.78;5058410;28;45437;-83
2021/06/16 05:51:55;;;;;;;;;28.75;27.75;;;;;26.24;47.65;101004.69;5058767;28;45368;-78
2021/06/16 05:54:21;;;;;;;;;31.50;28.25;;;;;26.25;48.01;101000.25;5057746;28;45300;-77
2021/06/16 05:56:47;;;;;;;;;30.50;29.50;;;;;26.24;47.48;100999.38;5056857;28;45383;-77
2021/06/16 05:59:13;;;;;;;;;27.00;25.00;;;;;26.23;48.01;101000.28;5059472;28;45451;-81
2021/06/16 06:01:39;;;;;;;;;28.50;25.25;;;;;26.29;48.20;100995.78;5058794;28;46240;-75
2021/06/16 06:04:08;;;;;;;;;28.50;28.00;;;;;26.30;47.51;101000.16;5043345;28;45292;-77
2021/06/16 06:06:35;;;;;;;;;26.50;24.50;;;;;26.34;48.31;100996.56;5063354;28;45472;-77
2021/06/16 06:09:03;;;;;;;;;30.50;28.25;;;;;26.39;47.85;100995.56;5069515;28;45416;-78
2021/06/16 06:11:29;;;;;;;;;29.50;27.25;;;;;26.42;47.84;100998.19;5053857;28;45407;-74
2021/06/16 06:13:54;;;;;;;;;35.50;29.25;;;;;26.45;47.70;100991.94;5065778;28;45590;-77
2021/06/16 06:16:20;;;;;;;;;29.75;28.25;;;;;26.45;47.92;100996.38;5057591;28;45412;-78
2021/06/16 06:18:46;;;;;;;;;32.75;31.25;;;;;26.47;47.33;100998.09;5057365;28;45373;-78
2021/06/16 06:21:12;;;;;;;;;25.50;25.25;;;;;26.46;47.82;100991.03;5039106;28;48120;-78
2021/06/16 06:23:38;;;;;;;;;29.50;27.25;;;;;26.52;48.00;100990.91;5056068;28;45391;-78
2021/06/16 06:26:04;;;;;;;;;27.25;27.00;;;;;26.53;46.95;100982.03;5055856;28;45367;-79
2021/06/16 06:28:29;;;;;;;;;32.00;28.75;;;;;26.63;47.38;100998.69;5057244;28;45295;-78
2021/06/16 06:30:55;;;;;;;;;31.25;29.25;;;;;26.67;47.24;100999.50;5055966;28;45939;-78
2021/06/16 06:33:20;;;;;;;;;35.25;28.75;;;;;26.66;47.35;100990.66;5061022;28;45262;-82
2021/06/16 06:35:46;;;;;;;;;30.50;29.00;;;;;26.67;47.17;100991.53;5064253;28;45445;-82
2021/06/16 06:38:13;;;;;;;;;29.50;28.25;;;;;26.77;47.20;100992.25;5060714;28;45609;-81
2021/06/16 06:40:40;;;;;;;;;32.00;27.25;;;;;26.74;47.05;100982.53;5057368;28;46079;-81
2021/06/16 06:43:06;;;;;;;;;29.25;28.50;;;;;26.86;47.25;100987.63;5056540;28;46011;-79
2021/06/16 06:45:32;;;;;;;;;34.50;30.00;;;;;26.90;47.10;100988.44;5056410;28;45524;-82
2021/06/16 06:47:58;;;;;;;;;29.00;29.00;;;;;26.92;46.47;100983.09;5056875;28;45518;-86
2021/06/16 06:50:24;;;;;;;;;35.75;31.75;;;;;26.91;46.89;100984.00;5055632;28;45507;-80
2021/06/16 06:52:50;;;;;;;;;28.50;27.00;;;;;26.95;46.87;100986.56;5058045;28;45430;-82
2021/06/16 06:55:17;;;;;;;;;36.25;33.00;;;;;26.98;46.56;100975.00;5049926;28;45471;-83
2021/06/16 06:57:44;;;;;;;;;41.50;33.25;;;;;27.01;46.60;100970.47;5060492;28;45519;-83
2021/06/16 07:00:11;;;;;;;;;34.25;30.00;;;;;27.03;46.56;100979.31;5055439;28;47189;-81
2021/06/16 07:02:37;;;;;;;;;31.50;28.25;;;;;27.08;46.14;100968.56;5057189;28;45367;-81
2021/06/16 07:05:04;;;;;;;;;34.75;30.25;;;;;27.13;46.67;100974.69;5057942;28;45312;-80
2021/06/16 07:07:30;;;;;;;;;30.25;29.25;;;;;27.16;46.55;100961.31;5057512;28;45584;-82
2021/06/16 07:09:55;;;;;;;;;27.50;25.75;;;;;27.19;46.33;100960.38;5057221;28;45445;-83
2021/06/16 07:12:21;;;;;;;;;30.50;26.00;;;;;27.21;45.69;100958.56;5056681;28;45467;-83
2021/06/16 07:14:47;;;;;;;;;25.25;25.00;;;;;27.30;45.90;100961.00;5057357;28;45341;-81
2021/06/16 07:17:13;;;;;;;;;24.25;22.75;;;;;27.35;45.56;100960.91;5058871;28;45372;-81
2021/06/16 07:19:38;;;;;;;;;27.75;23.00;;;;;27.40;45.37;100960.81;5056833;28;46434;-83
2021/06/16 07:22:04;;;;;;;;;21.25;21.25;;;;;27.37;44.83;100959.09;5037568;28;45431;-81
2021/06/16 07:24:30;;;;;;;;;21.25;20.25;;;;;27.37;44.81;100966.19;5056054;28;45382;-82
2021/06/16 07:26:56;;;;;;;;;25.75;24.25;;;;;27.32;45.29;100956.50;5056171;28;45568;-79
2021/06/16 07:29:22;;;;;;;;;18.25;18.25;;;;;27.40;44.82;100961.66;5039306;28;46347;-84
2021/06/16 07:31:49;;;;;;;;;22.50;20.75;;;;;27.42;44.84;100959.84;5060908;28;45354;-83
2021/06/16 07:34:15;;;;;;;;;21.50;18.00;;;;;27.50;44.73;100971.19;5062162;28;45354;-82
2021/06/16 07:36:40;;;;;;;;;22.50;21.00;;;;;27.53;44.56;100956.09;5040372;28;45448;-82
2021/06/16 07:39:07;;;;;;;;;18.00;17.25;;;;;27.56;44.10;100953.38;5055285;28;45400;-81
2021/06/16 07:41:33;;;;;;;;;18.00;18.00;;;;;27.52;43.86;100946.38;5055756;28;45472;-83
2021/06/16 07:43:58;;;;;;;;;20.00;20.00;;;;;27.59;43.69;100954.16;5038209;28;45372;-85
2021/06/16 07:46:24;;;;;;;;;20.50;19.25;;;;;27.62;43.74;100955.88;5056063;28;45399;-84
2021/06/16 07:48:50;;;;;;;;;18.75;18.00;;;;;27.66;44.11;100949.56;5057703;28;45454;-83
2021/06/16 07:51:18;;;;;;;;;19.00;19.00;;;;;27.68;43.38;100946.88;5056763;28;45450;-80
2021/06/16 07:53:44;;;;;;;;;18.00;17.00;;;;;27.71;43.39;100941.47;5056211;28;45330;-81
2021/06/16 07:56:10;;;;;;;;;17.25;16.50;;;;;27.69;43.46;100933.56;5059033;28;45440;-80
2021/06/16 07:58:36;;;;;;;;;14.00;13.50;;;;;27.72;43.44;100933.44;5061245;28;45979;-85
2021/06/16 08:01:02;;;;;;;;;15.25;15.00;;;;;27.73;43.31;100937.00;5065819;28;45494;-85
2021/06/16 08:03:28;;;;;;;;;17.00;15.00;;;;;27.79;43.27;100936.84;5067736;28;45543;-83
2021/06/16 08:05:54;;;;;;;;;16.25;16.25;;;;;27.81;42.87;100927.88;5061176;28;44977;-82
2021/06/16 08:08:21;;;;;;;;;16.00;15.50;;;;;27.84;42.53;100939.38;5056738;28;45595;-84
2021/06/16 08:10:47;;;;;;;;;14.75;13.00;;;;;27.81;43.10;100927.03;5056286;28;45777;-84
2021/06/16 08:13:13;;;;;;;;;17.00;13.75;;;;;27.86;42.79;100930.44;5038687;28;45347;-83
2021/06/16 08:15:39;;;;;;;;;16.25;14.00;;;;;27.88;42.94;100920.63;5058794;28;45352;-89
2021/06/16 08:18:05;;;;;;;;;15.50;14.75;;;;;27.96;43.16;100920.44;5058805;28;45262;-85
2021/06/16 08:20:31;;;;;;;;;13.00;12.25;;;;;27.99;42.85;100920.38;5057702;28;45328;-82
2021/06/16 08:22:58;;;;;;;;;16.50;14.75;;;;;28.05;42.55;100920.19;5037751;28;45486;-82
2021/06/16 08:25:25;;;;;;;;;17.75;16.25;;;;;28.08;43.09;100925.47;5061065;28;45633;-93
2021/06/16 08:27:50;;;;;;;;;15.25;15.25;;;;;28.09;42.30;100913.03;5062952;28;46695;-87
2021/06/16 08:30:17;;;;;;;;;14.50;14.50;;;;;28.18;42.67;100925.22;5063490;28;45341;-90
2021/06/16 08:32:43;;;;;;;;;14.50;12.50;;;;;28.18;42.62;100914.56;5069593;28;45485;-89
2021/06/16 08:35:10;;;;;;;;;16.00;13.75;;;;;28.23;42.44;100920.66;5073155;28;45205;-93
2021/06/16 08:37:35;;;;;;;;;13.75;13.00;;;;;28.22;42.08;100908.25;5052635;28;47355;-89
2021/06/16 08:40:03;;;;;;;;;13.00;13.00;;;;;28.27;42.09;100911.66;5070606;28;45278;-83
2021/06/16 08:42:29;;;;;;;;;12.00;12.00;;;;;28.27;41.87;100901.91;5067626;28;44822;-80
2021/06/16 08:44:56;;;;;;;;;12.50;12.50;;;;;28.34;41.68;100907.94;5062924;28;45270;-81
2021/06/16 08:47:23;;;;;;;;;13.00;12.25;;;;;28.35;41.98;100898.13;5060145;28;45327;-81
2021/06/16 08:49:49;;;;;;;;;14.25;12.75;;;;;28.34;41.79;100894.63;5056941;28;45682;-87
2021/06/16 08:52:15;;;;;;;;;12.50;12.50;;;;;28.42;41.83;100895.25;5040008;28;45299;-87
2021/06/16 08:54:41;;;;;;;;;14.25;12.25;;;;;28.45;41.61;100902.28;5059359;28;45368;-83
2021/06/16 08:57:07;;;;;;;;;13.50;12.00;;;;;28.47;41.26;100900.47;5064407;28;45647;-84
2021/06/16 08:59:33;;;;;;;;;13.25;13.25;;;;;28.44;41.13;100886.34;5065854;28;45395;-84
2021/06/16 09:01:59;;;;;;;;;12.00;12.00;;;;;28.49;40.88;100908.38;5066676;28;45280;-81
2021/06/16 09:04:43;;;;;;;;;13.75;13.75;;;;;28.57;40.97;100899.28;5046828;28;45545;-85
2021/06/16 09:07:31;;;;;;;;;12.25;11.75;;;;;28.54;40.70;100886.03;5061227;28;45624;-85
2021/06/16 09:10:18;;;;;;;;;12.00;11.75;;;;;28.66;40.80;100890.16;5047301;28;45435;-84
2021/06/16 09:12:57;;;;;;;;;12.50;12.50;;;;;28.70;40.85;100883.78;5048175;28;45375;-79
2021/06/16 09:15:26;;;;;;;;;13.75;13.75;;;;;28.79;40.46;100889.78;5040299;28;45621;-80
2021/06/16 09:18:12;;;;;;;;;14.50;12.00;;;;;28.84;40.09;100888.72;5035730;28;47169;-80
2021/06/16 09:20:42;;;;;;;;;13.25;13.25;;;;;28.85;40.21;100886.94;5042436;28;45369;-85
2021/06/16 09:23:25;;;;;;;;;12.25;12.25;;;;;28.90;40.03;100886.81;5060021;28;45516;-84
2021/06/16 09:26:10;;;;;;;;;10.50;10.50;;;;;28.92;39.64;100872.50;5059122;28;45333;-78
2021/06/16 09:28:39;;;;;;;;;12.00;10.25;;;;;28.96;38.72;100882.16;5062763;28;45623;-84
2021/06/16 09:31:06;;;;;;;;;12.00;11.00;;;;;29.00;38.95;100881.13;5047280;28;45503;-77
2021/06/16 09:33:33;;;;;;;;;14.00;13.50;;;;;29.03;39.14;100878.38;5045314;28;45609;-80
2021/06/16 09:35:59;;;;;;;;;13.75;12.75;;;;;29.04;39.00;100874.78;5043476;28;45496;-83
2021/06/16 09:38:30;;;;;;;;;11.25;11.25;;;;;29.07;39.00;100870.28;5054737;28;45336;-81
2021/06/16 09:40:58;;;;;;;;;10.75;10.75;;;;;29.11;38.74;100871.91;5051685;28;45334;-81
2021/06/16 09:43:26;;;;;;;;;12.75;12.00;;;;;29.14;38.56;100859.38;5051320;28;45334;-81
2021/06/16 09:45:57;;;;;;;;;12.25;11.00;;;;;29.17;38.58;100853.06;5061650;28;45504;-87
2021/06/16 09:48:30;;;;;;;;;11.00;11.00;;;;;29.19;38.48;100868.09;5058003;28;47783;-82
2021/06/16 09:51:19;;;;;;;;;14.00;13.00;;;;;29.22;38.85;100867.13;5058680;28;45831;-80
2021/06/16 09:54:12;;;;;;;;;11.50;11.50;;;;;29.28;38.79;100861.59;5053115;28;45613;-81
2021/06/16 09:56:42;;;;;;;;;11.75;11.75;;;;;29.25;38.42;100860.84;5048507;28;45504;-83
2021/06/16 09:59:08;;;;;;;;;12.50;11.75;;;;;29.24;38.58;100854.59;5048384;28;45645;-78
2021/06/16 10:01:47;;;;;;;;;14.25;12.25;;;;;29.35;38.22;100854.31;5057012;28;45128;-82
2021/06/16 10:04:41;;;;;;;;;14.00;13.50;;;;;29.39;38.57;100858.59;5054819;28;45388;-81
2021/06/16 10:07:16;;;;;;;;;11.50;11.00;;;;;29.41;38.53;100856.75;5057637;28;45529;-80
2021/06/16 10:09:57;;;;;;;;;15.50;14.50;;;;;29.44;37.79;100853.09;5058462;28;45986;-80
2021/06/16 10:12:25;;;;;;;;;21.25;16.75;;;;;29.48;37.86;100862.75;5056236;28;45922;-80
2021/06/16 10:14:52;;;;;;;;;21.00;20.75;;;;;29.53;37.79;100850.16;5057292;28;45442;-80
2021/06/16 10:17:18;;;;;;;;;17.25;17.00;;;;;29.56;37.80;100857.16;5057585;28;45674;-81
2021/06/16 10:19:44;;;;;;;;;13.00;11.50;;;;;29.58;37.44;100858.00;5057403;28;45921;-81
2021/06/16 10:22:11;;;;;;;;;15.50;13.75;;;;;29.59;38.18;100846.41;5057097;28;45344;-81
2021/06/16 10:24:37;;;;;;;;;13.50;13.25;;;;;29.67;37.87;100852.34;5057437;28;45335;-81
2021/06/16 10:27:06;;;;;;;;;15.00;14.25;;;;;29.72;37.06;100853.03;5057733;28;45365;-81
2021/06/16 10:29:42;;;;;;;;;13.50;12.50;;;;;29.72;37.31;100828.16;5060345;28;47855;-81
2021/06/16 10:32:10;;;;;;;;;11.00;11.00;;;;;29.81;37.09;100834.03;5041731;28;45735;-82
2021/06/16 10:34:51;;;;;;;;;17.25;14.75;;;;;29.86;37.48;100836.53;5040838;28;45384;-84
2021/06/16 10:37:38;;;;;;;;;14.75;13.75;;;;;29.79;37.11;100846.56;5058169;28;45885;-80
2021/06/16 10:40:14;;;;;;;;;12.00;12.00;;;;;29.78;36.71;100833.28;5064165;28;45541;-81
2021/06/16 10:42:58;;;;;;;;;13.25;13.25;;;;;29.80;37.05;100824.28;5066109;28;45221;-81
2021/06/16 10:45:27;;;;;;;;;13.75;13.75;;;;;29.76;37.14;100824.44;5067027;28;45438;-82
2021/06/16 10:48:05;;;;;;;;;13.75;13.00;;;;;29.91;36.72;100826.56;5044877;28;45528;-81
2021/06/16 10:50:50;;;;;;;;;14.00;14.00;;;;;29.97;36.29;100830.00;5057416;28;45447;-82
2021/06/16 10:53:20;;;;;;;;;14.75;13.25;;;;;29.94;36.54;100821.16;5057710;28;45832;-83
2021/06/16 10:55:54;;;;;;;;;13.75;12.25;;;;;29.99;36.27;100820.09;5052836;28;45339;-82
2021/06/16 10:58:25;;;;;;;;;12.25;11.25;;;;;30.05;36.15;100810.06;5083729;28;45542;-81
2021/06/16 11:01:17;;;;;;;;;17.25;17.25;;;;;30.10;36.45;100810.78;5080241;27;45343;-81
2021/06/16 11:03:52;;;;;;;;;14.00;14.00;;;;;30.17;35.83;100821.22;5078815;28;45929;-81
2021/06/16 11:06:36;;;;;;;;;15.50;15.50;;;;;30.26;36.27;100808.41;5078263;27;45367;-82
2021/06/16 11:09:40;;;;;;;;;15.00;13.50;;;;;30.32;35.60;100801.97;5078064;27;45268;-80
2021/06/16 11:12:07;;;;;;;;;14.25;14.25;;;;;30.37;35.07;100808.00;5074432;27;45652;-82
2021/06/16 11:14:32;;;;;;;;;12.50;12.00;;;;;30.41;34.90;100808.75;5077629;27;45402;-81
2021/06/16 11:17:06;;;;;;;;;11.50;11.00;;;;;30.41;34.27;100801.63;5076328;28;45517;-80
2021/06/16 11:19:34;;;;;;;;;12.50;12.50;;;;;30.56;34.26;100796.66;5077535;27;45574;-80